METAR Formatted Surface Weather Observation
Issued by NWS

Home | Current Version | Previous Version | Text Only | Print | Product List | Glossary On
Versions: 1 2 3 4 5 6 7 8 9 10 11 12 13
000
SAUS46 KSEW 202003
MTRSMP
METAR KSMP 201956Z AUTO VRB04KT 10SM CLR 20/10 A3018 RMK AO2 SLP201
T02000100 $



USA.gov is the U.S. government's official web portal to all federal, state and local government web resources and services.